Aviation Digital Data Service (ADDS)

Output produced by METARs form (0202 UTC 24 April 2014)
found at http://aviationweather.gov/adds/metars/
 
KGSO 240145Z 2402/2424 VRB05KT P6SM FEW250